Palmdale, CA (93551)

7:07 PM PDT on August 29, 2014 (GMT -0700)
Our Top Notch Ranch LV | Change Station
CLOSE
Current Station
Personal Weather Station
Location: Leona Valley, CA
Elevation: 3383 ft
Nearby Weather Stations

Elev 3383 ft 34.61 °N, 118.24 °W | Updated 13 minutes ago

Clear
Clear
85.4 °F
Feels Like 82 °F
N
9.0
Wind Variable Wind from West
Gusts 10.0 mph

Today
High -- | Low -- °F
--% Chance of Precip.
Yesterday
High -- | Low -- °F
Precip. -- in
6:23 AM 7:23 PM
Waxing Crescent, 18% visible
Pressure 29.80 in
Visibility 10.0 miles
Clouds Clear
Heat Index 82 °F
Dew Point 33 °F
Humidity 15%
Rainfall 0.00 in
Snow Depth Not available.
UV 0 out of 12
Pollen 7.80 out of 12
Ozone Moderate
Flu Activity Not available.
METAR KPMD 300153Z AUTO 26013KT 10SM CLR 33/M02 A2988 RMK AO2 SLP090 T03281022 TSNO

More Conditions Fewer Conditions

Pressure 29.80 in
Visibility 10.0 miles
Clouds Clear
Heat Index 82 °F
Dew Point 33 °F
Humidity 15%
Rainfall 0.00 in
Snow Depth Not available.
UV 0 out of 12
Pollen 7.80 out of 12
Ozone Moderate
Flu Activity Not available.
METAR KPMD 300153Z AUTO 26013KT 10SM CLR 33/M02 A2988 RMK AO2 SLP090 T03281022 TSNO

More Conditions Fewer Conditions

10-Day Weather Forecast

Almanac

Astronomy

Aug. 29, 2014 Rise Set
Actual Time 6:23 AM PDT 7:23 PM PDT
Civil Twilight 5:58 AM PDT 7:48 PM PDT
Nautical Twilight 5:27 AM PDT 8:19 PM PDT
Astronomical Twilight 4:55 AM PDT 8:51 PM PDT
Moon 10:06 AM PDT (8/29) 9:35 PM PDT (8/29)
Length of Visible Light 13h 50m
Length of Day
12h 59m
Tomorrow will be 2m 3s shorter.
Waxing Crescent, 18% of the Moon is Illuminated
Today
Waxing Crescent
Sep 2
First Quarter
Sep 8
Full
Sep 15
Last Quarter
Sep 24
New

Today's Extremes

State Highs State Lows

Community

WunderPhotos

Upload Photos

1,748,405 photos uploaded!

Nearby

Air Quality

  Air Quality AQ Index Pollutant
Yesterday Good
OZONE
Yesterday Good
PM10
Current Moderate
OZONE
Saturday Good
OZONE
Saturday Good
PM10
Saturday Good
CO
Saturday Good
NO2

Snow Depth

Station Depth Elevation
Leavitt Meadows 0 in 7200 ft
Summit Meadow 0 in 9122 ft
Monitor Pass 0 in 8350 ft
Hagan's Meadow 0 in 8000 ft
CSS Lab 0 in 6900 ft

Earthquake Activity

City Distance Mag. Time & Date
No recent earthquake activity has been reported nearby.
Minimum magnitude displayed is 2.5.

Coastal Water Temperatures

Place Temperature
No Stations Reporting

Nearby Weather Stations